sensor_id;sensor_type;location;lat;lon;timestamp;temperature;humidity
3275;DHT22;1649;53.672;10.064;2023-04-06T00:01:10;1.20;99.90
3275;DHT22;1649;53.672;10.064;2023-04-06T00:03:36;1.20;99.90
3275;DHT22;1649;53.672;10.064;2023-04-06T00:06:02;1.20;99.90
3275;DHT22;1649;53.672;10.064;2023-04-06T00:08:28;1.20;99.90
3275;DHT22;1649;53.672;10.064;2023-04-06T00:10:54;1.20;99.90
3275;DHT22;1649;53.672;10.064;2023-04-06T00:13:19;1.20;99.90
3275;DHT22;1649;53.672;10.064;2023-04-06T00:15:45;1.10;99.90
3275;DHT22;1649;53.672;10.064;2023-04-06T00:18:10;1.10;99.90
3275;DHT22;1649;53.672;10.064;2023-04-06T00:20:36;1.10;99.90
3275;DHT22;1649;53.672;10.064;2023-04-06T00:23:01;1.10;99.90
3275;DHT22;1649;53.672;10.064;2023-04-06T00:25:27;1.10;99.90
3275;DHT22;1649;53.672;10.064;2023-04-06T00:27:52;1.10;99.90
3275;DHT22;1649;53.672;10.064;2023-04-06T00:30:18;1.00;99.90
3275;DHT22;1649;53.672;10.064;2023-04-06T00:32:44;1.00;99.90
3275;DHT22;1649;53.672;10.064;2023-04-06T00:35:10;1.00;99.90
3275;DHT22;1649;53.672;10.064;2023-04-06T00:37:36;1.00;99.90
3275;DHT22;1649;53.672;10.064;2023-04-06T00:40:01;0.90;99.90
3275;DHT22;1649;53.672;10.064;2023-04-06T00:42:28;1.00;99.90
3275;DHT22;1649;53.672;10.064;2023-04-06T00:44:58;0.90;99.90
3275;DHT22;1649;53.672;10.064;2023-04-06T00:47:24;0.90;99.90
3275;DHT22;1649;53.672;10.064;2023-04-06T00:49:54;0.90;99.90
3275;DHT22;1649;53.672;10.064;2023-04-06T00:52:20;0.90;99.90
3275;DHT22;1649;53.672;10.064;2023-04-06T00:54:46;0.80;99.90
3275;DHT22;1649;53.672;10.064;2023-04-06T00:57:12;0.80;99.90
3275;DHT22;1649;53.672;10.064;2023-04-06T00:59:39;0.80;99.90
3275;DHT22;1649;53.672;10.064;2023-04-06T01:02:04;0.80;99.90
3275;DHT22;1649;53.672;10.064;2023-04-06T01:04:30;0.70;99.90
3275;DHT22;1649;53.672;10.064;2023-04-06T01:06:56;0.70;99.90
3275;DHT22;1649;53.672;10.064;2023-04-06T01:09:22;0.70;99.90
3275;DHT22;1649;53.672;10.064;2023-04-06T01:11:47;0.60;99.90
3275;DHT22;1649;53.672;10.064;2023-04-06T01:14:13;0.60;99.90
3275;DHT22;1649;53.672;10.064;2023-04-06T01:16:40;0.60;99.90
3275;DHT22;1649;53.672;10.064;2023-04-06T01:19:09;0.60;99.90
3275;DHT22;1649;53.672;10.064;2023-04-06T01:21:36;0.60;99.90
3275;DHT22;1649;53.672;10.064;2023-04-06T01:24:02;0.60;99.90
3275;DHT22;1649;53.672;10.064;2023-04-06T01:26:27;0.70;99.90
3275;DHT22;1649;53.672;10.064;2023-04-06T01:28:55;0.60;99.90
3275;DHT22;1649;53.672;10.064;2023-04-06T01:31:21;0.70;99.90
3275;DHT22;1649;53.672;10.064;2023-04-06T01:33:47;0.60;99.90
3275;DHT22;1649;53.672;10.064;2023-04-06T01:36:13;0.60;99.90
3275;DHT22;1649;53.672;10.064;2023-04-06T01:38:38;0.60;99.90
3275;DHT22;1649;53.672;10.064;2023-04-06T01:41:04;0.60;99.90
3275;DHT22;1649;53.672;10.064;2023-04-06T01:43:29;0.60;99.90
3275;DHT22;1649;53.672;10.064;2023-04-06T01:45:55;0.70;99.90
3275;DHT22;1649;53.672;10.064;2023-04-06T01:48:21;0.60;99.90
3275;DHT22;1649;53.672;10.064;2023-04-06T01:50:46;0.60;99.90
3275;DHT22;1649;53.672;10.064;2023-04-06T01:53:12;0.60;99.90
3275;DHT22;1649;53.672;10.064;2023-04-06T01:55:37;0.60;99.90
3275;DHT22;1649;53.672;10.064;2023-04-06T01:58:03;0.60;99.90
3275;DHT22;1649;53.672;10.064;2023-04-06T02:00:28;0.60;99.90
3275;DHT22;1649;53.672;10.064;2023-04-06T02:02:54;0.60;99.90
3275;DHT22;1649;53.672;10.064;2023-04-06T02:05:19;0.60;99.90
3275;DHT22;1649;53.672;10.064;2023-04-06T02:07:45;0.50;99.90
3275;DHT22;1649;53.672;10.064;2023-04-06T02:10:12;0.50;99.90
3275;DHT22;1649;53.672;10.064;2023-04-06T02:12:38;0.50;99.90
3275;DHT22;1649;53.672;10.064;2023-04-06T02:15:04;0.50;99.90
3275;DHT22;1649;53.672;10.064;2023-04-06T02:17:30;0.50;99.90
3275;DHT22;1649;53.672;10.064;2023-04-06T02:19:55;0.50;99.90
3275;DHT22;1649;53.672;10.064;2023-04-06T02:22:21;0.50;99.90
3275;DHT22;1649;53.672;10.064;2023-04-06T02:24:46;0.50;99.90
3275;DHT22;1649;53.672;10.064;2023-04-06T02:27:13;0.50;99.90
3275;DHT22;1649;53.672;10.064;2023-04-06T02:29:38;0.50;99.90
3275;DHT22;1649;53.672;10.064;2023-04-06T02:32:04;0.40;99.90
3275;DHT22;1649;53.672;10.064;2023-04-06T02:34:29;0.40;99.90
3275;DHT22;1649;53.672;10.064;2023-04-06T02:36:55;0.50;99.90
3275;DHT22;1649;53.672;10.064;2023-04-06T02:39:21;0.40;99.90
3275;DHT22;1649;53.672;10.064;2023-04-06T02:41:46;0.50;99.90
3275;DHT22;1649;53.672;10.064;2023-04-06T02:44:12;0.40;99.90
3275;DHT22;1649;53.672;10.064;2023-04-06T02:46:37;0.40;99.90
3275;DHT22;1649;53.672;10.064;2023-04-06T02:49:03;0.50;99.90
3275;DHT22;1649;53.672;10.064;2023-04-06T02:51:28;0.40;99.90
3275;DHT22;1649;53.672;10.064;2023-04-06T02:53:53;0.40;99.90
3275;DHT22;1649;53.672;10.064;2023-04-06T02:56:19;0.40;99.90
3275;DHT22;1649;53.672;10.064;2023-04-06T02:58:46;0.40;99.90
3275;DHT22;1649;53.672;10.064;2023-04-06T03:01:12;0.30;99.90
3275;DHT22;1649;53.672;10.064;2023-04-06T03:03:38;0.30;99.90
3275;DHT22;1649;53.672;10.064;2023-04-06T03:06:03;0.30;99.90
3275;DHT22;1649;53.672;10.064;2023-04-06T03:08:29;0.20;99.90
3275;DHT22;1649;53.672;10.064;2023-04-06T03:10:54;0.20;99.90
3275;DHT22;1649;53.672;10.064;2023-04-06T03:13:20;0.20;99.90
3275;DHT22;1649;53.672;10.064;2023-04-06T03:15:46;0.20;99.90
3275;DHT22;1649;53.672;10.064;2023-04-06T03:18:11;0.20;99.90
3275;DHT22;1649;53.672;10.064;2023-04-06T03:20:37;0.20;99.90
3275;DHT22;1649;53.672;10.064;2023-04-06T03:23:02;0.20;99.90
3275;DHT22;1649;53.672;10.064;2023-04-06T03:25:28;0.20;99.90
3275;DHT22;1649;53.672;10.064;2023-04-06T03:27:55;0.10;99.90
3275;DHT22;1649;53.672;10.064;2023-04-06T03:30:20;0.10;99.90
3275;DHT22;1649;53.672;10.064;2023-04-06T03:32:46;0.00;99.90
3275;DHT22;1649;53.672;10.064;2023-04-06T03:35:11;0.00;99.90
3275;DHT22;1649;53.672;10.064;2023-04-06T03:37:37;0.00;99.90
3275;DHT22;1649;53.672;10.064;2023-04-06T03:40:04;0.00;99.90
3275;DHT22;1649;53.672;10.064;2023-04-06T03:42:29;0.00;99.90
3275;DHT22;1649;53.672;10.064;2023-04-06T03:44:56;0.00;99.90
3275;DHT22;1649;53.672;10.064;2023-04-06T03:47:22;0.00;99.90
3275;DHT22;1649;53.672;10.064;2023-04-06T03:49:47;0.00;99.90
3275;DHT22;1649;53.672;10.064;2023-04-06T03:52:13;0.00;99.90
3275;DHT22;1649;53.672;10.064;2023-04-06T03:54:38;-0.10;99.90
3275;DHT22;1649;53.672;10.064;2023-04-06T03:57:04;-0.10;99.90
3275;DHT22;1649;53.672;10.064;2023-04-06T03:59:29;-0.20;99.90
3275;DHT22;1649;53.672;10.064;2023-04-06T04:01:55;-0.20;99.90
3275;DHT22;1649;53.672;10.064;2023-04-06T04:04:21;-0.20;99.90
3275;DHT22;1649;53.672;10.064;2023-04-06T04:06:46;-0.10;99.90
3275;DHT22;1649;53.672;10.064;2023-04-06T04:09:12;-0.10;99.90
3275;DHT22;1649;53.672;10.064;2023-04-06T04:11:37;-0.10;99.90
3275;DHT22;1649;53.672;10.064;2023-04-06T04:14:03;-0.20;99.90
3275;DHT22;1649;53.672;10.064;2023-04-06T04:16:29;-0.20;99.90
3275;DHT22;1649;53.672;10.064;2023-04-06T04:18:54;-0.20;99.90
3275;DHT22;1649;53.672;10.064;2023-04-06T04:21:20;-0.20;99.90
3275;DHT22;1649;53.672;10.064;2023-04-06T04:23:45;-0.20;99.90
3275;DHT22;1649;53.672;10.064;2023-04-06T04:26:11;-0.20;99.90
3275;DHT22;1649;53.672;10.064;2023-04-06T04:28:36;-0.20;99.90
3275;DHT22;1649;53.672;10.064;2023-04-06T04:31:02;-0.30;99.90
3275;DHT22;1649;53.672;10.064;2023-04-06T04:33:27;-0.30;99.90
3275;DHT22;1649;53.672;10.064;2023-04-06T04:35:53;-0.30;99.90
3275;DHT22;1649;53.672;10.064;2023-04-06T04:38:18;-0.30;99.90
3275;DHT22;1649;53.672;10.064;2023-04-06T04:40:44;-0.30;99.90
3275;DHT22;1649;53.672;10.064;2023-04-06T04:43:09;-0.30;99.90
3275;DHT22;1649;53.672;10.064;2023-04-06T04:45:35;-0.30;99.90
3275;DHT22;1649;53.672;10.064;2023-04-06T04:48:00;-0.30;99.90
3275;DHT22;1649;53.672;10.064;2023-04-06T04:50:26;-0.40;99.90
3275;DHT22;1649;53.672;10.064;2023-04-06T04:52:51;-0.40;99.90
3275;DHT22;1649;53.672;10.064;2023-04-06T04:55:17;-0.40;99.90
3275;DHT22;1649;53.672;10.064;2023-04-06T04:57:43;-0.40;99.90
3275;DHT22;1649;53.672;10.064;2023-04-06T05:00:08;-0.40;99.90
3275;DHT22;1649;53.672;10.064;2023-04-06T05:02:34;-0.50;99.90
3275;DHT22;1649;53.672;10.064;2023-04-06T05:05:00;-0.40;99.90
3275;DHT22;1649;53.672;10.064;2023-04-06T05:07:25;-0.40;99.90
3275;DHT22;1649;53.672;10.064;2023-04-06T05:09:51;-0.40;99.90
3275;DHT22;1649;53.672;10.064;2023-04-06T05:12:18;-0.40;99.90
3275;DHT22;1649;53.672;10.064;2023-04-06T05:14:44;-0.40;99.90
3275;DHT22;1649;53.672;10.064;2023-04-06T05:17:10;-0.40;99.90
3275;DHT22;1649;53.672;10.064;2023-04-06T05:19:35;-0.30;99.90
3275;DHT22;1649;53.672;10.064;2023-04-06T05:22:01;-0.30;99.90
3275;DHT22;1649;53.672;10.064;2023-04-06T05:24:26;-0.30;99.90
3275;DHT22;1649;53.672;10.064;2023-04-06T05:26:52;-0.30;99.90
3275;DHT22;1649;53.672;10.064;2023-04-06T05:29:18;-0.30;99.90
3275;DHT22;1649;53.672;10.064;2023-04-06T05:31:44;-0.30;99.90
3275;DHT22;1649;53.672;10.064;2023-04-06T05:34:09;-0.30;99.90
3275;DHT22;1649;53.672;10.064;2023-04-06T05:36:35;-0.30;99.90
3275;DHT22;1649;53.672;10.064;2023-04-06T05:39:01;-0.30;99.90
3275;DHT22;1649;53.672;10.064;2023-04-06T05:41:26;-0.30;99.90
3275;DHT22;1649;53.672;10.064;2023-04-06T05:43:52;-0.30;99.90
3275;DHT22;1649;53.672;10.064;2023-04-06T05:46:18;-0.20;99.90
3275;DHT22;1649;53.672;10.064;2023-04-06T05:48:43;-0.20;99.90
3275;DHT22;1649;53.672;10.064;2023-04-06T05:51:10;-0.10;99.90
3275;DHT22;1649;53.672;10.064;2023-04-06T05:53:35;-0.10;99.90
3275;DHT22;1649;53.672;10.064;2023-04-06T05:56:01;0.00;99.90
3275;DHT22;1649;53.672;10.064;2023-04-06T05:58:27;0.00;99.90
3275;DHT22;1649;53.672;10.064;2023-04-06T06:01:00;0.10;99.90
3275;DHT22;1649;53.672;10.064;2023-04-06T06:03:25;0.20;99.90
3275;DHT22;1649;53.672;10.064;2023-04-06T06:05:51;0.30;99.90
3275;DHT22;1649;53.672;10.064;2023-04-06T06:08:17;0.30;99.90
3275;DHT22;1649;53.672;10.064;2023-04-06T06:10:42;0.40;99.90
3275;DHT22;1649;53.672;10.064;2023-04-06T06:13:08;0.50;99.90
3275;DHT22;1649;53.672;10.064;2023-04-06T06:15:34;0.70;99.90
3275;DHT22;1649;53.672;10.064;2023-04-06T06:18:00;0.80;99.90
3275;DHT22;1649;53.672;10.064;2023-04-06T06:20:26;1.00;99.90
3275;DHT22;1649;53.672;10.064;2023-04-06T06:22:52;1.50;99.90
3275;DHT22;1649;53.672;10.064;2023-04-06T06:25:17;2.10;99.90
3275;DHT22;1649;53.672;10.064;2023-04-06T06:27:43;2.70;99.90
3275;DHT22;1649;53.672;10.064;2023-04-06T06:30:09;3.00;99.90
3275;DHT22;1649;53.672;10.064;2023-04-06T06:32:34;3.40;99.90
3275;DHT22;1649;53.672;10.064;2023-04-06T06:35:00;3.80;99.90
3275;DHT22;1649;53.672;10.064;2023-04-06T06:37:25;4.20;99.90
3275;DHT22;1649;53.672;10.064;2023-04-06T06:39:51;4.70;99.90
3275;DHT22;1649;53.672;10.064;2023-04-06T06:42:16;5.50;99.90
3275;DHT22;1649;53.672;10.064;2023-04-06T06:44:42;6.60;99.90
3275;DHT22;1649;53.672;10.064;2023-04-06T06:47:07;7.70;99.90
3275;DHT22;1649;53.672;10.064;2023-04-06T06:49:33;8.60;97.30
3275;DHT22;1649;53.672;10.064;2023-04-06T06:51:58;9.30;93.60
3275;DHT22;1649;53.672;10.064;2023-04-06T06:54:24;9.60;91.00
3275;DHT22;1649;53.672;10.064;2023-04-06T06:56:50;9.90;88.10
3275;DHT22;1649;53.672;10.064;2023-04-06T06:59:15;10.30;86.90
3275;DHT22;1649;53.672;10.064;2023-04-06T07:01:41;10.30;86.80
3275;DHT22;1649;53.672;10.064;2023-04-06T07:04:07;10.30;83.60
3275;DHT22;1649;53.672;10.064;2023-04-06T07:06:35;10.60;88.30
3275;DHT22;1649;53.672;10.064;2023-04-06T07:09:01;11.00;84.40
3275;DHT22;1649;53.672;10.064;2023-04-06T07:11:28;11.10;83.10
3275;DHT22;1649;53.672;10.064;2023-04-06T07:13:54;11.00;78.90
3275;DHT22;1649;53.672;10.064;2023-04-06T07:16:20;10.10;80.90
3275;DHT22;1649;53.672;10.064;2023-04-06T07:18:45;9.50;82.80
3275;DHT22;1649;53.672;10.064;2023-04-06T07:21:11;8.60;81.50
3275;DHT22;1649;53.672;10.064;2023-04-06T07:23:36;8.10;83.50
3275;DHT22;1649;53.672;10.064;2023-04-06T07:26:02;7.60;86.20
3275;DHT22;1649;53.672;10.064;2023-04-06T07:28:27;7.20;88.40
3275;DHT22;1649;53.672;10.064;2023-04-06T07:30:53;7.00;90.70
3275;DHT22;1649;53.672;10.064;2023-04-06T07:33:19;6.70;93.60
3275;DHT22;1649;53.672;10.064;2023-04-06T07:35:45;6.70;93.10
3275;DHT22;1649;53.672;10.064;2023-04-06T07:38:11;6.70;94.10
3275;DHT22;1649;53.672;10.064;2023-04-06T07:40:36;6.60;93.40
3275;DHT22;1649;53.672;10.064;2023-04-06T07:43:02;6.90;94.70
3275;DHT22;1649;53.672;10.064;2023-04-06T07:45:28;7.80;90.40
3275;DHT22;1649;53.672;10.064;2023-04-06T07:47:53;8.90;86.50
3275;DHT22;1649;53.672;10.064;2023-04-06T07:50:19;9.70;79.40
3275;DHT22;1649;53.672;10.064;2023-04-06T07:52:45;10.30;75.90
3275;DHT22;1649;53.672;10.064;2023-04-06T07:55:10;10.90;72.70
3275;DHT22;1649;53.672;10.064;2023-04-06T07:57:36;11.60;73.10
3275;DHT22;1649;53.672;10.064;2023-04-06T08:00:02;12.00;70.30
3275;DHT22;1649;53.672;10.064;2023-04-06T08:02:29;12.20;65.90
3275;DHT22;1649;53.672;10.064;2023-04-06T08:04:54;12.20;65.40
3275;DHT22;1649;53.672;10.064;2023-04-06T08:07:20;12.10;64.20
3275;DHT22;1649;53.672;10.064;2023-04-06T08:09:46;11.80;63.00
3275;DHT22;1649;53.672;10.064;2023-04-06T08:12:12;11.80;62.60
3275;DHT22;1649;53.672;10.064;2023-04-06T08:14:38;11.30;61.90
3275;DHT22;1649;53.672;10.064;2023-04-06T08:17:04;10.70;63.10
3275;DHT22;1649;53.672;10.064;2023-04-06T08:19:29;10.00;65.40
3275;DHT22;1649;53.672;10.064;2023-04-06T08:21:55;10.20;66.30
3275;DHT22;1649;53.672;10.064;2023-04-06T08:24:20;10.70;68.00
3275;DHT22;1649;53.672;10.064;2023-04-06T08:26:46;10.90;66.00
3275;DHT22;1649;53.672;10.064;2023-04-06T08:29:11;11.40;65.60
3275;DHT22;1649;53.672;10.064;2023-04-06T08:31:37;11.60;63.80
3275;DHT22;1649;53.672;10.064;2023-04-06T08:34:05;12.10;64.70
3275;DHT22;1649;53.672;10.064;2023-04-06T08:36:32;12.20;62.00
3275;DHT22;1649;53.672;10.064;2023-04-06T08:38:58;11.90;60.60
3275;DHT22;1649;53.672;10.064;2023-04-06T08:41:24;12.00;60.50
3275;DHT22;1649;53.672;10.064;2023-04-06T08:43:58;12.20;59.60
3275;DHT22;1649;53.672;10.064;2023-04-06T08:46:24;12.20;60.10
3275;DHT22;1649;53.672;10.064;2023-04-06T08:49:00;12.40;60.70
3275;DHT22;1649;53.672;10.064;2023-04-06T08:51:27;12.90;60.20
3275;DHT22;1649;53.672;10.064;2023-04-06T08:53:54;13.30;61.50
3275;DHT22;1649;53.672;10.064;2023-04-06T08:56:21;13.60;58.50
3275;DHT22;1649;53.672;10.064;2023-04-06T08:58:47;13.90;59.00
3275;DHT22;1649;53.672;10.064;2023-04-06T09:01:14;14.50;60.00
3275;DHT22;1649;53.672;10.064;2023-04-06T09:03:42;14.80;56.80
3275;DHT22;1649;53.672;10.064;2023-04-06T09:06:08;14.50;54.70
3275;DHT22;1649;53.672;10.064;2023-04-06T09:08:34;14.60;57.80
3275;DHT22;1649;53.672;10.064;2023-04-06T09:11:02;14.40;56.50
3275;DHT22;1649;53.672;10.064;2023-04-06T09:13:28;14.10;53.90
3275;DHT22;1649;53.672;10.064;2023-04-06T09:18:32;13.40;53.20
3275;DHT22;1649;53.672;10.064;2023-04-06T09:21:05;13.70;56.50
3275;DHT22;1649;53.672;10.064;2023-04-06T09:23:32;13.90;55.10
3275;DHT22;1649;53.672;10.064;2023-04-06T09:26:07;13.80;53.40
3275;DHT22;1649;53.672;10.064;2023-04-06T09:28:50;13.20;53.60
3275;DHT22;1649;53.672;10.064;2023-04-06T09:31:21;13.60;52.70
3275;DHT22;1649;53.672;10.064;2023-04-06T09:33:46;13.20;52.40
3275;DHT22;1649;53.672;10.064;2023-04-06T09:36:12;13.20;53.20
3275;DHT22;1649;53.672;10.064;2023-04-06T09:38:55;13.20;52.30
3275;DHT22;1649;53.672;10.064;2023-04-06T09:41:25;13.20;51.20
3275;DHT22;1649;53.672;10.064;2023-04-06T09:43:52;12.70;51.40
3275;DHT22;1649;53.672;10.064;2023-04-06T09:46:26;12.90;52.50
3275;DHT22;1649;53.672;10.064;2023-04-06T09:48:52;13.00;52.60
3275;DHT22;1649;53.672;10.064;2023-04-06T09:51:18;13.10;51.80
3275;DHT22;1649;53.672;10.064;2023-04-06T09:53:48;13.20;53.60
3275;DHT22;1649;53.672;10.064;2023-04-06T09:56:22;13.20;53.30
3275;DHT22;1649;53.672;10.064;2023-04-06T09:58:50;13.00;50.00
3275;DHT22;1649;53.672;10.064;2023-04-06T10:01:21;13.30;52.80
3275;DHT22;1649;53.672;10.064;2023-04-06T10:06:28;13.60;53.10
3275;DHT22;1649;53.672;10.064;2023-04-06T10:08:58;13.90;51.90
3275;DHT22;1649;53.672;10.064;2023-04-06T10:11:23;13.70;51.40
3275;DHT22;1649;53.672;10.064;2023-04-06T10:13:50;13.60;50.20
3275;DHT22;1649;53.672;10.064;2023-04-06T10:16:15;13.40;50.50
3275;DHT22;1649;53.672;10.064;2023-04-06T10:18:46;13.60;52.50
3275;DHT22;1649;53.672;10.064;2023-04-06T10:21:14;13.40;52.00
3275;DHT22;1649;53.672;10.064;2023-04-06T10:23:59;13.50;52.30
3275;DHT22;1649;53.672;10.064;2023-04-06T10:26:26;13.50;54.00
3275;DHT22;1649;53.672;10.064;2023-04-06T10:28:51;13.60;53.70
3275;DHT22;1649;53.672;10.064;2023-04-06T10:31:25;14.10;54.00
3275;DHT22;1649;53.672;10.064;2023-04-06T10:33:59;14.10;51.30
3275;DHT22;1649;53.672;10.064;2023-04-06T10:36:26;14.60;55.30
3275;DHT22;1649;53.672;10.064;2023-04-06T10:39:03;14.40;52.70
3275;DHT22;1649;53.672;10.064;2023-04-06T10:43:59;14.00;52.10
3275;DHT22;1649;53.672;10.064;2023-04-06T10:46:25;14.00;49.40
3275;DHT22;1649;53.672;10.064;2023-04-06T10:48:51;13.90;49.70
3275;DHT22;1649;53.672;10.064;2023-04-06T10:51:18;13.60;50.90
3275;DHT22;1649;53.672;10.064;2023-04-06T10:53:45;13.50;50.20
3275;DHT22;1649;53.672;10.064;2023-04-06T10:56:16;13.40;51.20
3275;DHT22;1649;53.672;10.064;2023-04-06T10:58:46;13.50;51.30
3275;DHT22;1649;53.672;10.064;2023-04-06T11:01:12;13.40;51.10
3275;DHT22;1649;53.672;10.064;2023-04-06T11:03:46;13.60;50.90
3275;DHT22;1649;53.672;10.064;2023-04-06T11:06:18;13.40;49.20
3275;DHT22;1649;53.672;10.064;2023-04-06T11:08:44;13.30;50.60
3275;DHT22;1649;53.672;10.064;2023-04-06T11:11:14;13.40;50.00
3275;DHT22;1649;53.672;10.064;2023-04-06T11:13:46;13.20;50.60
3275;DHT22;1649;53.672;10.064;2023-04-06T11:16:13;13.20;50.20
3275;DHT22;1649;53.672;10.064;2023-04-06T11:18:50;13.10;50.10
3275;DHT22;1649;53.672;10.064;2023-04-06T11:21:17;13.50;51.40
3275;DHT22;1649;53.672;10.064;2023-04-06T11:23:43;13.60;52.40
3275;DHT22;1649;53.672;10.064;2023-04-06T11:26:12;13.80;51.30
3275;DHT22;1649;53.672;10.064;2023-04-06T11:28:38;13.80;50.50
3275;DHT22;1649;53.672;10.064;2023-04-06T11:31:05;13.60;50.40
3275;DHT22;1649;53.672;10.064;2023-04-06T11:33:35;13.60;51.30
3275;DHT22;1649;53.672;10.064;2023-04-06T11:36:01;13.30;50.10
3275;DHT22;1649;53.672;10.064;2023-04-06T11:38:27;13.30;52.20
3275;DHT22;1649;53.672;10.064;2023-04-06T11:40:53;13.30;53.00
3275;DHT22;1649;53.672;10.064;2023-04-06T11:43:29;13.30;51.90
3275;DHT22;1649;53.672;10.064;2023-04-06T11:46:00;13.40;51.50
3275;DHT22;1649;53.672;10.064;2023-04-06T11:48:27;13.60;54.30
3275;DHT22;1649;53.672;10.064;2023-04-06T11:50:57;13.50;52.30
3275;DHT22;1649;53.672;10.064;2023-04-06T11:53:23;13.30;50.00
3275;DHT22;1649;53.672;10.064;2023-04-06T11:55:49;13.40;52.60
3275;DHT22;1649;53.672;10.064;2023-04-06T11:58:15;13.70;54.20
3275;DHT22;1649;53.672;10.064;2023-04-06T12:00:40;13.80;51.90
3275;DHT22;1649;53.672;10.064;2023-04-06T12:03:10;13.20;50.30
3275;DHT22;1649;53.672;10.064;2023-04-06T12:05:36;13.20;51.70
3275;DHT22;1649;53.672;10.064;2023-04-06T12:08:01;13.50;52.90
3275;DHT22;1649;53.672;10.064;2023-04-06T12:10:27;13.60;52.50
3275;DHT22;1649;53.672;10.064;2023-04-06T12:12:52;13.60;53.90
3275;DHT22;1649;53.672;10.064;2023-04-06T12:15:18;13.60;52.20
3275;DHT22;1649;53.672;10.064;2023-04-06T12:17:43;13.80;52.10
3275;DHT22;1649;53.672;10.064;2023-04-06T12:20:09;14.00;51.70
3275;DHT22;1649;53.672;10.064;2023-04-06T12:22:35;13.90;49.50
3275;DHT22;1649;53.672;10.064;2023-04-06T12:25:01;13.70;50.50
3275;DHT22;1649;53.672;10.064;2023-04-06T12:27:27;13.80;51.20
3275;DHT22;1649;53.672;10.064;2023-04-06T12:29:53;14.00;51.80
3275;DHT22;1649;53.672;10.064;2023-04-06T12:32:18;14.10;50.50
3275;DHT22;1649;53.672;10.064;2023-04-06T12:34:44;14.20;51.90
3275;DHT22;1649;53.672;10.064;2023-04-06T12:37:10;14.00;49.70
3275;DHT22;1649;53.672;10.064;2023-04-06T12:39:35;13.60;48.80
3275;DHT22;1649;53.672;10.064;2023-04-06T12:42:01;13.30;49.50
3275;DHT22;1649;53.672;10.064;2023-04-06T12:44:28;13.50;50.70
3275;DHT22;1649;53.672;10.064;2023-04-06T12:46:53;13.70;52.70
3275;DHT22;1649;53.672;10.064;2023-04-06T12:49:19;13.90;51.20
3275;DHT22;1649;53.672;10.064;2023-04-06T12:51:45;13.80;50.60
3275;DHT22;1649;53.672;10.064;2023-04-06T12:54:10;13.70;50.40
3275;DHT22;1649;53.672;10.064;2023-04-06T12:56:37;13.60;50.80
3275;DHT22;1649;53.672;10.064;2023-04-06T12:59:02;13.60;53.00
3275;DHT22;1649;53.672;10.064;2023-04-06T13:01:28;13.80;51.40
3275;DHT22;1649;53.672;10.064;2023-04-06T13:03:54;13.80;50.50
3275;DHT22;1649;53.672;10.064;2023-04-06T13:06:19;13.70;51.00
3275;DHT22;1649;53.672;10.064;2023-04-06T13:08:45;13.80;50.00
3275;DHT22;1649;53.672;10.064;2023-04-06T13:11:12;13.80;50.40
3275;DHT22;1649;53.672;10.064;2023-04-06T13:13:38;13.70;49.50
3275;DHT22;1649;53.672;10.064;2023-04-06T13:16:07;13.50;50.90
3275;DHT22;1649;53.672;10.064;2023-04-06T13:18:34;13.50;51.10
3275;DHT22;1649;53.672;10.064;2023-04-06T13:21:00;13.70;51.90
3275;DHT22;1649;53.672;10.064;2023-04-06T13:23:26;13.80;52.50
3275;DHT22;1649;53.672;10.064;2023-04-06T13:26:05;13.80;50.80
3275;DHT22;1649;53.672;10.064;2023-04-06T13:28:33;13.70;51.50
3275;DHT22;1649;53.672;10.064;2023-04-06T13:30:59;13.60;51.50
3275;DHT22;1649;53.672;10.064;2023-04-06T13:33:25;13.70;52.40
3275;DHT22;1649;53.672;10.064;2023-04-06T13:35:51;13.80;50.60
3275;DHT22;1649;53.672;10.064;2023-04-06T13:38:16;13.80;50.50
3275;DHT22;1649;53.672;10.064;2023-04-06T13:40:42;13.80;51.30
3275;DHT22;1649;53.672;10.064;2023-04-06T13:43:08;13.90;51.90
3275;DHT22;1649;53.672;10.064;2023-04-06T13:45:33;14.00;51.10
3275;DHT22;1649;53.672;10.064;2023-04-06T13:47:59;14.10;52.70
3275;DHT22;1649;53.672;10.064;2023-04-06T13:50:29;13.80;48.90
3275;DHT22;1649;53.672;10.064;2023-04-06T13:52:55;13.50;49.20
3275;DHT22;1649;53.672;10.064;2023-04-06T13:55:21;13.30;50.10
3275;DHT22;1649;53.672;10.064;2023-04-06T13:57:47;13.30;51.10
3275;DHT22;1649;53.672;10.064;2023-04-06T14:00:13;13.40;51.20
3275;DHT22;1649;53.672;10.064;2023-04-06T14:02:40;13.20;50.30
3275;DHT22;1649;53.672;10.064;2023-04-06T14:05:05;13.40;51.70
3275;DHT22;1649;53.672;10.064;2023-04-06T14:07:31;13.40;51.30
3275;DHT22;1649;53.672;10.064;2023-04-06T14:09:57;13.30;50.10
3275;DHT22;1649;53.672;10.064;2023-04-06T14:12:22;13.40;51.80
3275;DHT22;1649;53.672;10.064;2023-04-06T14:14:48;13.50;52.00
3275;DHT22;1649;53.672;10.064;2023-04-06T14:17:14;13.50;50.70
3275;DHT22;1649;53.672;10.064;2023-04-06T14:19:39;13.20;50.00
3275;DHT22;1649;53.672;10.064;2023-04-06T14:22:05;13.40;50.30
3275;DHT22;1649;53.672;10.064;2023-04-06T14:24:30;13.40;51.20
3275;DHT22;1649;53.672;10.064;2023-04-06T14:26:56;13.60;51.40
3275;DHT22;1649;53.672;10.064;2023-04-06T14:29:22;13.60;50.40
3275;DHT22;1649;53.672;10.064;2023-04-06T14:31:48;13.50;50.20
3275;DHT22;1649;53.672;10.064;2023-04-06T14:34:14;13.50;51.30
3275;DHT22;1649;53.672;10.064;2023-04-06T14:36:41;13.40;50.00
3275;DHT22;1649;53.672;10.064;2023-04-06T14:39:07;13.30;50.30
3275;DHT22;1649;53.672;10.064;2023-04-06T14:41:33;13.30;51.20
3275;DHT22;1649;53.672;10.064;2023-04-06T14:43:59;13.40;52.40
3275;DHT22;1649;53.672;10.064;2023-04-06T14:46:25;13.50;51.60
3275;DHT22;1649;53.672;10.064;2023-04-06T14:48:55;13.40;50.90
3275;DHT22;1649;53.672;10.064;2023-04-06T14:51:21;13.20;50.40
3275;DHT22;1649;53.672;10.064;2023-04-06T14:53:49;13.30;50.90
3275;DHT22;1649;53.672;10.064;2023-04-06T14:56:19;13.30;51.40
3275;DHT22;1649;53.672;10.064;2023-04-06T14:58:45;13.40;51.40
3275;DHT22;1649;53.672;10.064;2023-04-06T15:01:11;13.30;50.50
3275;DHT22;1649;53.672;10.064;2023-04-06T15:03:36;13.20;51.10
3275;DHT22;1649;53.672;10.064;2023-04-06T15:06:02;13.10;50.70
3275;DHT22;1649;53.672;10.064;2023-04-06T15:08:28;13.10;50.90
3275;DHT22;1649;53.672;10.064;2023-04-06T15:10:53;13.20;52.30
3275;DHT22;1649;53.672;10.064;2023-04-06T15:13:21;13.30;52.60
3275;DHT22;1649;53.672;10.064;2023-04-06T15:15:50;13.20;51.50
3275;DHT22;1649;53.672;10.064;2023-04-06T15:18:16;13.20;51.70
3275;DHT22;1649;53.672;10.064;2023-04-06T15:20:42;13.20;52.40
3275;DHT22;1649;53.672;10.064;2023-04-06T15:23:07;13.20;52.00
3275;DHT22;1649;53.672;10.064;2023-04-06T15:25:33;13.20;52.20
3275;DHT22;1649;53.672;10.064;2023-04-06T15:27:58;13.30;52.10
3275;DHT22;1649;53.672;10.064;2023-04-06T15:30:24;13.10;51.70
3275;DHT22;1649;53.672;10.064;2023-04-06T15:32:55;13.10;52.00
3275;DHT22;1649;53.672;10.064;2023-04-06T15:35:21;13.10;51.60
3275;DHT22;1649;53.672;10.064;2023-04-06T15:37:47;13.00;51.90
3275;DHT22;1649;53.672;10.064;2023-04-06T15:40:13;12.90;51.50
3275;DHT22;1649;53.672;10.064;2023-04-06T15:42:41;12.90;51.70
3275;DHT22;1649;53.672;10.064;2023-04-06T15:45:08;12.90;50.90
3275;DHT22;1649;53.672;10.064;2023-04-06T15:47:34;12.90;51.40
3275;DHT22;1649;53.672;10.064;2023-04-06T15:50:00;13.00;52.00
3275;DHT22;1649;53.672;10.064;2023-04-06T15:52:25;12.90;52.60
3275;DHT22;1649;53.672;10.064;2023-04-06T15:54:51;12.80;51.50